Decoded Metar for DABT (BATNA in ALGERIA) (IATA:N/A) | Meteo·Mobile Aviation Weather
aviador You're here:

DABT Decoded Metar

BATNA in ALGERIA
Report Time2019-06-18 12:00:00
UTC Time2019-06-18 12:43:15
Flight Rules vfr VFR
Wind270° at 08 kt
W.Decomp.*RWY 23: 6.2 kt HW 5.0 kt RCW
Visibility9999 m
Phenomena:N/A
Clouds:Scattered 026 Hf
Expected CloudBase > 10,000 ft AGL from Temp-Dew spread
CeilingNone
Temp33°C (ISA +25)
Dew Point08°C (21% RH)
Heat Index31.0°C
AAT29.6°C
QNH1017 hPa
Density Alt6,273 ft
Elevation3,451 ft
Report Wrong Elevation
Raw Report
METAR DABT 181200Z 27008KT 9999 SCT026 33/08 Q1017=

Extra information for DABT:More info

Metar Taf Metar & Taf Last 4 Metars F.Rules Stats Wind Profile Meteogram Temp Stats Airport Information Weather charts Add Link Nearby VenuesMetar ALERT Operation Metar Decoded Social comments